createdAt,value
2023-05-20T00:02:00.131Z,15.35
2023-05-20T00:04:28.191Z,15.38
2023-05-20T00:06:56.245Z,15.40
2023-05-20T00:09:25.673Z,15.43
2023-05-20T00:11:53.724Z,15.45
2023-05-20T00:14:21.749Z,15.48
2023-05-20T00:16:49.774Z,15.53
2023-05-20T00:19:17.870Z,15.55
2023-05-20T00:21:45.867Z,15.58
2023-05-20T00:24:13.862Z,15.59
2023-05-20T00:26:43.281Z,15.59
2023-05-20T00:29:11.229Z,15.56
2023-05-20T00:31:39.248Z,15.51
2023-05-20T00:34:07.271Z,15.48
2023-05-20T00:36:35.881Z,15.45
2023-05-20T00:39:03.842Z,15.41
2023-05-20T00:41:31.819Z,15.38
2023-05-20T00:44:01.195Z,15.37
2023-05-20T00:46:29.589Z,15.30
2023-05-20T00:48:57.802Z,15.26
2023-05-20T00:51:25.884Z,15.23
2023-05-20T00:53:53.834Z,15.19
2023-05-20T00:56:22.189Z,15.13
2023-05-20T00:58:50.381Z,15.08
2023-05-20T01:01:19.788Z,14.97
2023-05-20T01:03:48.782Z,14.93
2023-05-20T01:06:16.930Z,14.86
2023-05-20T01:08:45.125Z,14.79
2023-05-20T01:11:16.024Z,14.70
2023-05-20T01:13:47.052Z,14.58
2023-05-20T01:16:15.065Z,14.51
2023-05-20T01:18:44.439Z,14.44
2023-05-20T01:21:13.225Z,14.37
2023-05-20T01:23:42.710Z,14.29
2023-05-20T01:26:13.805Z,14.26
2023-05-20T01:28:43.769Z,14.19
2023-05-20T01:31:15.657Z,14.10
2023-05-20T01:33:43.653Z,14.05
2023-05-20T01:36:11.774Z,14.00
2023-05-20T01:38:39.760Z,13.90
2023-05-20T01:41:09.134Z,13.87
2023-05-20T01:43:37.795Z,13.82
2023-05-20T01:46:07.665Z,13.77
2023-05-20T01:48:35.780Z,13.75
2023-05-20T01:51:03.737Z,13.70
2023-05-20T01:53:31.782Z,13.66
2023-05-20T01:55:59.757Z,13.46
2023-05-20T01:58:29.210Z,13.65
2023-05-20T02:00:57.223Z,13.64
2023-05-20T02:03:25.274Z,13.63
2023-05-20T02:05:53.343Z,13.63
2023-05-20T02:08:21.362Z,13.62
2023-05-20T02:10:49.711Z,13.64
2023-05-20T02:13:17.664Z,13.63
2023-05-20T02:15:47.052Z,13.64
2023-05-20T02:18:18.611Z,13.65
2023-05-20T02:20:46.680Z,13.69
2023-05-20T02:23:14.679Z,13.68
2023-05-20T02:25:42.684Z,13.69
2023-05-20T02:28:11.347Z,13.77
2023-05-20T02:30:39.330Z,13.84
2023-05-20T02:33:09.873Z,13.93
2023-05-20T02:35:38.153Z,13.95
2023-05-20T02:38:06.265Z,13.95
2023-05-20T02:40:34.389Z,14.03
2023-05-20T02:43:02.598Z,14.08
2023-05-20T02:45:30.589Z,14.11
2023-05-20T02:47:58.639Z,14.19
2023-05-20T02:50:27.958Z,14.24
2023-05-20T02:52:55.953Z,14.26
2023-05-20T02:55:24.691Z,14.22
2023-05-20T02:57:52.712Z,14.27
2023-05-20T03:00:20.823Z,14.30
2023-05-20T03:02:48.817Z,14.25
2023-05-20T03:05:16.908Z,14.21
2023-05-20T03:07:46.528Z,14.11
2023-05-20T03:10:14.546Z,14.12
2023-05-20T03:12:42.513Z,14.08
2023-05-20T03:15:11.391Z,14.08
2023-05-20T03:17:39.380Z,14.01
2023-05-20T03:20:09.147Z,13.99
2023-05-20T03:22:37.218Z,13.94
2023-05-20T03:25:07.556Z,13.91
2023-05-20T03:27:36.955Z,13.91
2023-05-20T03:30:05.472Z,13.92
2023-05-20T03:32:33.496Z,13.90
2023-05-20T03:35:01.597Z,13.88
2023-05-20T03:37:29.640Z,13.93
2023-05-20T03:39:57.677Z,13.98
2023-05-20T03:42:27.090Z,14.02
2023-05-20T03:44:55.074Z,14.08
2023-05-20T03:47:23.100Z,14.13
2023-05-20T03:49:51.096Z,14.21
2023-05-20T03:52:19.083Z,14.30
2023-05-20T03:54:47.289Z,14.44
2023-05-20T03:57:15.303Z,14.57
2023-05-20T03:59:44.760Z,14.63
2023-05-20T04:02:13.111Z,14.72
2023-05-20T04:04:43.165Z,14.95
2023-05-20T04:07:11.288Z,15.37
2023-05-20T04:09:39.397Z,15.91
2023-05-20T04:12:07.606Z,16.40
2023-05-20T04:14:35.886Z,16.68
2023-05-20T04:17:06.116Z,17.09
2023-05-20T04:19:34.883Z,17.49
2023-05-20T04:22:02.865Z,17.52
2023-05-20T04:24:30.933Z,17.40
2023-05-20T04:26:58.970Z,17.30
2023-05-20T04:29:26.988Z,17.19
2023-05-20T04:31:58.805Z,17.02
2023-05-20T04:34:30.314Z,16.95
2023-05-20T04:37:00.307Z,16.99
2023-05-20T04:39:28.335Z,17.25
2023-05-20T04:41:56.305Z,19.08
2023-05-20T04:44:24.800Z,20.70
2023-05-20T04:46:52.808Z,21.74
2023-05-20T04:49:20.803Z,21.84
2023-05-20T04:51:51.948Z,21.52
2023-05-20T04:54:20.367Z,21.17
2023-05-20T04:56:48.357Z,20.77
2023-05-20T04:59:16.432Z,20.64
2023-05-20T05:01:44.471Z,20.52
2023-05-20T05:04:12.521Z,20.87
2023-05-20T05:06:40.551Z,21.46
2023-05-20T05:09:09.897Z,21.04
2023-05-20T05:11:37.884Z,20.51
2023-05-20T05:14:05.931Z,20.09
2023-05-20T05:16:33.951Z,20.04
2023-05-20T05:19:02.043Z,20.34
2023-05-20T05:21:30.111Z,20.50
2023-05-20T05:23:59.115Z,20.50
2023-05-20T05:26:28.500Z,20.97
2023-05-20T05:28:56.613Z,21.39
2023-05-20T05:31:24.592Z,21.81
2023-05-20T05:33:52.578Z,21.83
2023-05-20T05:36:20.566Z,22.06
2023-05-20T05:38:48.546Z,22.15
2023-05-20T05:41:16.504Z,21.80
2023-05-20T05:43:45.886Z,21.43
2023-05-20T05:46:13.855Z,21.17
2023-05-20T05:48:42.719Z,21.03
2023-05-20T05:51:10.782Z,21.05
2023-05-20T05:53:38.780Z,22.78
2023-05-20T05:56:07.600Z,23.48
2023-05-20T05:58:35.612Z,22.88
2023-05-20T06:01:05.024Z,23.23
2023-05-20T06:03:33.204Z,23.59
2023-05-20T06:06:01.260Z,24.61
2023-05-20T06:08:29.255Z,26.44
2023-05-20T06:10:57.223Z,28.21
2023-05-20T06:13:25.227Z,29.47
2023-05-20T06:15:53.662Z,29.87
2023-05-20T06:18:23.032Z,30.01
2023-05-20T06:20:56.166Z,30.15
2023-05-20T06:23:24.135Z,30.00
2023-05-20T06:25:52.183Z,29.40
2023-05-20T06:28:20.120Z,28.27
2023-05-20T06:30:48.142Z,26.22
2023-05-20T06:33:16.164Z,25.28
2023-05-20T06:35:45.544Z,24.42
2023-05-20T06:38:13.653Z,23.84
2023-05-20T06:40:41.679Z,23.32
2023-05-20T06:43:09.662Z,22.81
2023-05-20T06:45:37.661Z,22.36
2023-05-20T06:48:05.841Z,21.70
2023-05-20T06:50:33.825Z,21.43
2023-05-20T06:53:03.282Z,20.99
2023-05-20T06:55:31.300Z,20.77
2023-05-20T06:57:59.270Z,20.70
2023-05-20T07:00:27.231Z,20.79
2023-05-20T07:02:55.352Z,20.76
2023-05-20T07:05:24.351Z,21.00
2023-05-20T07:07:52.347Z,21.02
2023-05-20T07:10:21.766Z,21.27
2023-05-20T07:12:49.717Z,21.32
2023-05-20T07:15:18.067Z,21.58
2023-05-20T07:17:46.073Z,21.79
2023-05-20T07:20:14.284Z,21.99
2023-05-20T07:22:42.272Z,22.10
2023-05-20T07:25:10.724Z,22.27
2023-05-20T07:27:40.057Z,22.73
2023-05-20T07:30:09.130Z,23.05
2023-05-20T07:32:37.188Z,23.61
2023-05-20T07:35:05.734Z,24.43
2023-05-20T07:37:33.722Z,24.81
2023-05-20T07:40:01.769Z,25.28
2023-05-20T07:42:29.752Z,24.94
2023-05-20T07:44:59.122Z,24.89
2023-05-20T07:47:27.273Z,24.39
2023-05-20T07:49:55.296Z,24.42
2023-05-20T07:52:23.282Z,24.43
2023-05-20T07:54:51.264Z,24.75
2023-05-20T07:57:19.261Z,24.69
2023-05-20T07:59:47.304Z,24.68
2023-05-20T08:02:17.819Z,24.42
2023-05-20T08:04:45.862Z,24.19
2023-05-20T08:07:14.003Z,24.04
2023-05-20T08:09:42.041Z,24.00
2023-05-20T08:12:10.025Z,24.09
2023-05-20T08:14:37.999Z,23.92
2023-05-20T08:17:06.084Z,23.96
2023-05-20T08:19:35.587Z,24.17
2023-05-20T08:22:03.756Z,24.11
2023-05-20T08:24:31.925Z,24.29
2023-05-20T08:27:00.109Z,24.30
2023-05-20T08:29:28.171Z,23.86
2023-05-20T08:31:56.155Z,23.66
2023-05-20T08:34:24.162Z,23.64
2023-05-20T08:36:53.785Z,23.66
2023-05-20T08:39:21.805Z,23.61
2023-05-20T08:41:49.817Z,23.36
2023-05-20T08:44:17.816Z,23.19
2023-05-20T08:46:46.048Z,23.05
2023-05-20T08:49:14.262Z,23.35
2023-05-20T08:51:42.984Z,23.66
2023-05-20T08:54:12.979Z,24.06
2023-05-20T08:56:42.032Z,24.25
2023-05-20T08:59:10.206Z,23.84
2023-05-20T09:01:41.797Z,23.51
2023-05-20T09:04:09.954Z,23.24
2023-05-20T09:06:44.251Z,22.66
2023-05-20T09:09:13.979Z,22.07
2023-05-20T09:11:42.188Z,21.61
2023-05-20T09:14:10.264Z,21.15
2023-05-20T09:16:38.362Z,20.63
2023-05-20T09:19:07.494Z,20.24
2023-05-20T09:21:37.466Z,19.84
2023-05-20T09:24:05.805Z,19.66
2023-05-20T09:26:35.208Z,19.69
2023-05-20T09:29:03.169Z,19.88
2023-05-20T09:31:33.939Z,20.18
2023-05-20T09:34:02.093Z,20.43
2023-05-20T09:36:30.513Z,20.89
2023-05-20T09:39:03.423Z,21.30
2023-05-20T09:41:35.473Z,21.63
2023-05-20T09:44:04.141Z,21.86
2023-05-20T09:46:32.851Z,22.34
2023-05-20T09:49:00.927Z,22.46
2023-05-20T09:51:29.696Z,22.92
2023-05-20T09:53:57.724Z,23.31
2023-05-20T09:56:25.711Z,23.64
2023-05-20T09:58:58.254Z,23.96
2023-05-20T10:01:26.325Z,24.35
2023-05-20T10:03:54.395Z,24.78
2023-05-20T10:06:35.567Z,24.70
2023-05-20T10:09:11.577Z,24.87
2023-05-20T10:11:44.560Z,25.06
2023-05-20T10:14:33.740Z,25.19
2023-05-20T10:17:09.087Z,25.41
2023-05-20T10:19:37.118Z,25.46
2023-05-20T10:22:05.735Z,25.78
2023-05-20T10:24:34.334Z,25.95
2023-05-20T10:27:03.910Z,25.82
2023-05-20T10:29:43.622Z,25.98
2023-05-20T10:32:11.963Z,26.23
2023-05-20T10:34:47.074Z,26.64
2023-05-20T10:37:24.522Z,26.50
2023-05-20T10:39:52.567Z,27.06
2023-05-20T10:42:29.463Z,27.58
2023-05-20T10:44:58.854Z,28.12
2023-05-20T10:47:26.929Z,28.79
2023-05-20T10:49:54.925Z,29.56
2023-05-20T10:52:22.935Z,30.54
2023-05-20T10:54:56.863Z,30.72
2023-05-20T10:57:25.382Z,30.54
2023-05-20T10:59:53.411Z,30.71
2023-05-20T11:02:26.914Z,31.06
2023-05-20T11:04:55.412Z,30.81
2023-05-20T11:07:27.768Z,31.38
2023-05-20T11:09:55.981Z,31.87
2023-05-20T11:12:24.782Z,32.01
2023-05-20T11:14:52.775Z,32.58
2023-05-20T11:17:22.254Z,33.25
2023-05-20T11:19:50.298Z,33.53
2023-05-20T11:22:18.339Z,33.65
2023-05-20T11:24:46.551Z,33.11
2023-05-20T11:27:14.565Z,32.37
2023-05-20T11:29:42.732Z,33.25
2023-05-20T11:32:10.750Z,33.34
2023-05-20T11:34:40.825Z,34.01
2023-05-20T11:37:09.137Z,33.99
2023-05-20T11:39:37.950Z,32.98
2023-05-20T11:42:07.052Z,31.70
2023-05-20T11:44:35.097Z,31.12
2023-05-20T11:47:03.784Z,30.57
2023-05-20T11:49:31.894Z,30.51
2023-05-20T11:52:01.280Z,30.11
2023-05-20T11:54:29.310Z,30.64
2023-05-20T11:56:57.530Z,31.70
2023-05-20T11:59:25.803Z,32.51
2023-05-20T12:01:53.900Z,32.34
2023-05-20T12:04:21.972Z,32.70
2023-05-20T12:06:50.054Z,33.51
2023-05-20T12:09:20.110Z,33.89
2023-05-20T12:11:48.117Z,33.96
2023-05-20T12:14:16.143Z,34.87
2023-05-20T12:16:44.121Z,34.40
2023-05-20T12:19:12.169Z,33.85
2023-05-20T12:21:40.209Z,33.08
2023-05-20T12:24:09.359Z,33.44
2023-05-20T12:26:38.720Z,33.88
2023-05-20T12:29:07.037Z,35.02
2023-05-20T12:31:35.312Z,33.58
2023-05-20T12:34:03.655Z,33.37
2023-05-20T12:36:31.732Z,34.13
2023-05-20T12:38:59.751Z,32.91
2023-05-20T12:41:27.776Z,32.57
2023-05-20T12:43:57.174Z,32.08
2023-05-20T12:46:25.199Z,31.31
2023-05-20T12:48:53.278Z,30.21
2023-05-20T12:51:21.277Z,28.93
2023-05-20T12:53:49.424Z,28.50
2023-05-20T12:56:17.778Z,29.16
2023-05-20T12:58:45.752Z,30.90
2023-05-20T13:01:15.206Z,32.26
2023-05-20T13:03:43.280Z,33.56
2023-05-20T13:06:11.246Z,34.47
2023-05-20T13:08:39.204Z,34.19
2023-05-20T13:11:07.180Z,33.98
2023-05-20T13:13:35.236Z,33.97
2023-05-20T13:16:03.245Z,33.54
2023-05-20T13:18:32.651Z,33.91
2023-05-20T13:21:00.750Z,33.87
2023-05-20T13:23:28.807Z,32.84
2023-05-20T13:25:56.833Z,31.59
2023-05-20T13:28:24.817Z,30.51
2023-05-20T13:30:52.861Z,29.26
2023-05-20T13:33:20.930Z,28.60
2023-05-20T13:35:50.352Z,27.66
2023-05-20T13:38:18.346Z,27.15
2023-05-20T13:40:46.278Z,26.82
2023-05-20T13:43:14.308Z,26.37
2023-05-20T13:45:42.407Z,26.01
2023-05-20T13:48:11.483Z,25.72
2023-05-20T13:50:39.559Z,25.48
2023-05-20T13:53:12.533Z,24.77
2023-05-20T13:55:40.595Z,22.19
2023-05-20T13:58:09.180Z,20.42
2023-05-20T14:00:37.323Z,18.33
2023-05-20T14:03:05.675Z,16.90
2023-05-20T14:05:33.801Z,16.29
2023-05-20T14:08:01.767Z,15.94
2023-05-20T14:10:31.094Z,15.56
2023-05-20T14:13:00.343Z,15.51
2023-05-20T14:15:30.534Z,15.53
2023-05-20T14:17:58.676Z,15.58
2023-05-20T14:20:27.000Z,15.66
2023-05-20T14:22:54.980Z,15.71
2023-05-20T14:25:22.995Z,15.77
2023-05-20T14:27:52.392Z,15.83
2023-05-20T14:30:20.406Z,15.94
2023-05-20T14:32:48.452Z,16.01
2023-05-20T14:35:16.921Z,16.12
2023-05-20T14:37:44.949Z,16.16
2023-05-20T14:40:13.494Z,16.16
2023-05-20T14:42:41.528Z,16.15
2023-05-20T14:45:12.162Z,16.17
2023-05-20T14:47:41.087Z,16.24
2023-05-20T14:50:09.443Z,16.23
2023-05-20T14:52:37.477Z,16.32
2023-05-20T14:55:06.077Z,16.32
2023-05-20T14:57:34.095Z,16.39
2023-05-20T15:00:02.120Z,16.44
2023-05-20T15:02:31.498Z,16.32
2023-05-20T15:04:59.534Z,16.50
2023-05-20T15:07:27.740Z,16.54
2023-05-20T15:09:55.912Z,16.64
2023-05-20T15:12:23.905Z,16.71
2023-05-20T15:14:51.890Z,16.72
2023-05-20T15:17:19.996Z,16.78
2023-05-20T15:19:49.363Z,16.78
2023-05-20T15:22:17.429Z,16.83
2023-05-20T15:24:45.389Z,16.86
2023-05-20T15:27:13.390Z,16.91
2023-05-20T15:29:41.340Z,16.93
2023-05-20T15:32:09.357Z,17.02
2023-05-20T15:34:37.334Z,17.04
2023-05-20T15:37:06.717Z,17.14
2023-05-20T15:39:35.097Z,17.21
2023-05-20T15:42:03.434Z,17.25
2023-05-20T15:44:31.413Z,17.21
2023-05-20T15:46:59.378Z,17.20
2023-05-20T15:49:27.388Z,17.24
2023-05-20T15:52:02.320Z,17.24
2023-05-20T15:54:33.265Z,17.15
2023-05-20T15:57:01.252Z,17.06
2023-05-20T15:59:29.281Z,16.95
2023-05-20T16:01:57.304Z,16.90
2023-05-20T16:04:25.445Z,16.86
2023-05-20T16:06:53.420Z,16.81
2023-05-20T16:09:22.285Z,16.78
2023-05-20T16:11:51.748Z,16.73
2023-05-20T16:14:19.756Z,16.67
2023-05-20T16:16:47.790Z,16.60
2023-05-20T16:19:15.984Z,16.51
2023-05-20T16:21:45.575Z,16.43
2023-05-20T16:24:13.554Z,16.37
2023-05-20T16:26:41.742Z,16.31
2023-05-20T16:29:11.144Z,16.34
2023-05-20T16:31:39.190Z,16.30
2023-05-20T16:34:07.223Z,16.26
2023-05-20T16:36:35.224Z,16.21
2023-05-20T16:39:03.274Z,16.13
2023-05-20T16:41:31.475Z,16.07
2023-05-20T16:43:59.607Z,16.03
2023-05-20T16:46:28.983Z,16.03
2023-05-20T16:48:57.138Z,15.98
2023-05-20T16:51:25.139Z,15.89
2023-05-20T16:53:53.130Z,15.83
2023-05-20T16:56:21.684Z,15.76
2023-05-20T16:58:52.100Z,15.73
2023-05-20T17:01:21.294Z,15.65
2023-05-20T17:03:50.948Z,15.57
2023-05-20T17:06:19.004Z,15.55
2023-05-20T17:08:47.012Z,15.51
2023-05-20T17:11:15.229Z,15.45
2023-05-20T17:13:43.229Z,15.38
2023-05-20T17:16:12.230Z,15.32
2023-05-20T17:18:40.344Z,15.27
2023-05-20T17:21:09.765Z,15.24
2023-05-20T17:23:37.832Z,15.24
2023-05-20T17:26:06.190Z,15.21
2023-05-20T17:28:34.176Z,15.22
2023-05-20T17:31:02.133Z,15.21
2023-05-20T17:33:30.198Z,15.20
2023-05-20T17:35:58.202Z,15.21
2023-05-20T17:38:27.573Z,15.24
2023-05-20T17:40:55.644Z,15.22
2023-05-20T17:43:25.122Z,15.24
2023-05-20T17:45:53.169Z,15.21
2023-05-20T17:48:21.355Z,15.18
2023-05-20T17:50:49.368Z,15.16
2023-05-20T17:53:19.163Z,15.08
2023-05-20T17:55:49.744Z,15.04
2023-05-20T17:58:17.952Z,14.99
2023-05-20T18:00:45.994Z,14.95
2023-05-20T18:03:14.219Z,14.89
2023-05-20T18:05:42.465Z,14.89
2023-05-20T18:08:10.537Z,14.84
2023-05-20T18:10:38.540Z,14.80
2023-05-20T18:13:07.910Z,14.76
2023-05-20T18:15:35.959Z,14.71
2023-05-20T18:18:04.042Z,14.66
2023-05-20T18:20:32.005Z,14.58
2023-05-20T18:22:59.996Z,14.50
2023-05-20T18:25:27.980Z,14.46
2023-05-20T18:27:55.980Z,14.41
2023-05-20T18:30:25.376Z,14.31
2023-05-20T18:32:53.393Z,14.27
2023-05-20T18:35:21.377Z,14.20
2023-05-20T18:37:49.428Z,14.12
2023-05-20T18:40:19.086Z,14.01
2023-05-20T18:42:47.073Z,13.98
2023-05-20T18:45:15.092Z,13.93
2023-05-20T18:47:44.557Z,13.91
2023-05-20T18:50:12.857Z,13.89
2023-05-20T18:52:40.810Z,13.94
2023-05-20T18:55:09.643Z,13.97
2023-05-20T18:57:37.641Z,14.01
2023-05-20T19:00:08.552Z,14.00
2023-05-20T19:02:36.587Z,14.05
2023-05-20T19:05:07.177Z,14.06
2023-05-20T19:07:35.197Z,14.18
2023-05-20T19:10:03.315Z,14.24
2023-05-20T19:12:31.281Z,14.24
2023-05-20T19:14:59.330Z,14.30
2023-05-20T19:17:27.336Z,14.39
2023-05-20T19:19:55.395Z,14.45
2023-05-20T19:22:24.796Z,14.48
2023-05-20T19:24:52.757Z,14.48
2023-05-20T19:27:20.774Z,14.46
2023-05-20T19:29:48.740Z,14.44
2023-05-20T19:32:16.787Z,14.42
2023-05-20T19:34:44.861Z,14.39
2023-05-20T19:37:12.866Z,14.37
2023-05-20T19:39:42.281Z,14.38
2023-05-20T19:42:10.286Z,14.36
2023-05-20T19:44:38.301Z,14.35
2023-05-20T19:47:07.941Z,14.32
2023-05-20T19:49:36.361Z,14.28
2023-05-20T19:52:04.472Z,14.27
2023-05-20T19:54:32.515Z,14.25
2023-05-20T19:57:01.934Z,14.21
2023-05-20T19:59:29.976Z,14.21
2023-05-20T20:02:02.774Z,14.21
2023-05-20T20:04:30.872Z,14.20
2023-05-20T20:06:58.849Z,14.15
2023-05-20T20:09:26.865Z,14.14
2023-05-20T20:11:54.880Z,14.07
2023-05-20T20:14:24.252Z,13.97
2023-05-20T20:16:52.301Z,13.94
2023-05-20T20:19:23.119Z,13.93
2023-05-20T20:21:53.085Z,13.94
2023-05-20T20:24:21.084Z,13.92
2023-05-20T20:26:49.052Z,13.91
2023-05-20T20:29:17.052Z,13.86
2023-05-20T20:31:46.601Z,13.87
2023-05-20T20:34:14.576Z,13.82
2023-05-20T20:36:45.014Z,13.77
2023-05-20T20:39:18.959Z,13.69
2023-05-20T20:41:47.384Z,13.60
2023-05-20T20:44:18.662Z,13.55
2023-05-20T20:46:50.804Z,13.54
2023-05-20T20:49:19.037Z,13.55
2023-05-20T20:51:47.010Z,13.53
2023-05-20T20:54:15.421Z,13.50
2023-05-20T20:56:45.533Z,13.45
2023-05-20T20:59:15.751Z,13.39
2023-05-20T21:01:44.945Z,13.36
2023-05-20T21:04:14.641Z,13.35
2023-05-20T21:06:45.932Z,13.33
2023-05-20T21:09:14.041Z,13.32
2023-05-20T21:11:43.050Z,13.29
2023-05-20T21:14:11.111Z,13.28
2023-05-20T21:16:39.255Z,13.26
2023-05-20T21:19:07.428Z,13.20
2023-05-20T21:21:36.944Z,13.19
2023-05-20T21:24:05.107Z,13.19
2023-05-20T21:26:33.060Z,13.18
2023-05-20T21:29:01.091Z,13.13
2023-05-20T21:31:29.151Z,13.12
2023-05-20T21:33:57.202Z,13.15
2023-05-20T21:36:25.158Z,13.16
2023-05-20T21:38:54.507Z,13.23
2023-05-20T21:41:23.550Z,13.28
2023-05-20T21:43:51.619Z,13.31
2023-05-20T21:46:19.671Z,13.38
2023-05-20T21:48:47.691Z,13.43
2023-05-20T21:51:15.788Z,13.43
2023-05-20T21:53:43.988Z,13.33
2023-05-20T21:56:13.307Z,13.27
2023-05-20T21:58:41.892Z,13.20
2023-05-20T22:01:10.374Z,13.14
2023-05-20T22:03:39.971Z,13.09
2023-05-20T22:06:08.232Z,13.08
2023-05-20T22:08:36.297Z,13.05
2023-05-20T22:11:07.387Z,13.03
2023-05-20T22:13:41.363Z,13.02
2023-05-20T22:16:09.493Z,13.02
2023-05-20T22:18:38.521Z,13.00
2023-05-20T22:21:06.868Z,13.04
2023-05-20T22:23:34.824Z,13.09
2023-05-20T22:26:02.850Z,13.16
2023-05-20T22:28:30.840Z,13.22
2023-05-20T22:31:00.246Z,13.26
2023-05-20T22:33:28.224Z,13.31
2023-05-20T22:35:58.164Z,13.34
2023-05-20T22:38:26.180Z,13.35
2023-05-20T22:40:54.146Z,13.43
2023-05-20T22:43:23.414Z,13.41
2023-05-20T22:45:51.483Z,13.42
2023-05-20T22:48:23.098Z,13.43
2023-05-20T22:50:51.190Z,13.40
2023-05-20T22:53:19.329Z,13.41
2023-05-20T22:55:47.257Z,13.41
2023-05-20T22:58:15.263Z,13.34
2023-05-20T23:00:44.591Z,13.33
2023-05-20T23:03:13.348Z,13.31
2023-05-20T23:05:42.828Z,13.30
2023-05-20T23:08:10.865Z,13.28
2023-05-20T23:10:38.929Z,13.22
2023-05-20T23:13:06.885Z,13.22
2023-05-20T23:15:35.112Z,13.21
2023-05-20T23:18:03.393Z,13.20
2023-05-20T23:20:31.350Z,13.19
2023-05-20T23:23:08.254Z,13.19
2023-05-20T23:25:39.364Z,13.18
2023-05-20T23:28:07.576Z,13.16
2023-05-20T23:30:35.948Z,13.14
2023-05-20T23:33:04.578Z,13.12
2023-05-20T23:35:32.650Z,13.06
2023-05-20T23:38:01.976Z,13.05
2023-05-20T23:40:29.954Z,13.03
2023-05-20T23:42:58.012Z,13.05
2023-05-20T23:45:26.042Z,13.04
2023-05-20T23:47:55.527Z,12.98
2023-05-20T23:50:23.779Z,12.98
2023-05-20T23:52:52.283Z,12.93
2023-05-20T23:55:21.643Z,12.84
2023-05-20T23:57:49.854Z,12.84
